createdAt,value
2022-09-09T00:02:17.031Z,17.10
2022-09-09T00:04:56.253Z,17.20
2022-09-09T00:07:43.778Z,17.30
2022-09-09T00:10:32.319Z,17.60
2022-09-09T00:13:17.120Z,17.40
2022-09-09T00:15:55.616Z,17.20
2022-09-09T00:18:34.901Z,17.10
2022-09-09T00:21:08.657Z,17.30
2022-09-09T00:23:40.685Z,17.40
2022-09-09T00:26:41.260Z,17.30
2022-09-09T00:29:19.870Z,17.30
2022-09-09T00:31:47.682Z,17.20
2022-09-09T00:34:27.150Z,17.30
2022-09-09T00:36:57.141Z,16.90
2022-09-09T00:39:38.034Z,17.00
2022-09-09T00:42:15.582Z,17.10
2022-09-09T00:45:22.341Z,17.20
2022-09-09T00:47:53.928Z,17.40
2022-09-09T00:50:40.158Z,17.50
2022-09-09T00:53:34.975Z,17.30
2022-09-09T00:56:12.360Z,17.50
2022-09-09T00:58:39.186Z,17.70
2022-09-09T01:01:12.974Z,17.70
2022-09-09T01:03:52.387Z,17.70
2022-09-09T01:06:33.688Z,17.50
2022-09-09T01:09:23.577Z,17.80
2022-09-09T01:11:53.815Z,17.80
2022-09-09T01:14:35.622Z,17.90
2022-09-09T01:17:15.926Z,17.80
2022-09-09T01:19:45.818Z,17.80
2022-09-09T01:22:21.199Z,17.80
2022-09-09T01:25:13.725Z,17.70
2022-09-09T01:27:43.965Z,17.60
2022-09-09T01:30:13.733Z,17.60
2022-09-09T01:32:47.917Z,17.50
2022-09-09T01:35:40.717Z,17.70
2022-09-09T01:38:07.843Z,17.80
2022-09-09T01:40:34.779Z,17.80
2022-09-09T01:43:01.802Z,17.90
2022-09-09T01:45:29.006Z,18.00
2022-09-09T01:47:55.952Z,17.80
2022-09-09T01:50:23.420Z,18.00
2022-09-09T01:52:56.367Z,18.00
2022-09-09T01:55:34.142Z,18.10
2022-09-09T01:58:25.646Z,18.10
2022-09-09T02:01:03.157Z,18.10
2022-09-09T02:03:32.153Z,18.00
2022-09-09T02:06:11.965Z,17.80
2022-09-09T02:08:47.741Z,17.90
2022-09-09T02:11:17.403Z,17.90
2022-09-09T02:13:49.842Z,17.80
2022-09-09T02:16:24.127Z,17.80
2022-09-09T02:19:15.277Z,17.90
2022-09-09T02:21:44.911Z,18.10
2022-09-09T02:24:16.449Z,17.80
2022-09-09T02:26:47.781Z,17.70
2022-09-09T02:29:26.429Z,17.70
2022-09-09T02:31:56.117Z,17.60
2022-09-09T02:34:25.137Z,17.80
2022-09-09T02:36:55.965Z,17.80
2022-09-09T02:39:22.809Z,17.80
2022-09-09T02:41:49.811Z,18.00
2022-09-09T02:44:18.894Z,18.00
2022-09-09T02:47:09.449Z,18.00
2022-09-09T02:49:57.551Z,17.90
2022-09-09T02:52:38.205Z,17.90
2022-09-09T02:55:22.664Z,18.00
2022-09-09T02:57:51.114Z,17.90
2022-09-09T03:00:25.430Z,17.90
2022-09-09T03:02:52.401Z,17.70
2022-09-09T03:05:19.130Z,17.50
2022-09-09T03:07:45.940Z,17.50
2022-09-09T03:10:12.757Z,17.30
2022-09-09T03:12:39.729Z,17.60
2022-09-09T03:15:07.825Z,17.50
2022-09-09T03:17:35.290Z,17.50
2022-09-09T03:20:05.615Z,17.70
2022-09-09T03:22:32.402Z,17.60
2022-09-09T03:24:59.129Z,17.70
2022-09-09T03:27:26.018Z,17.60
2022-09-09T03:29:53.004Z,17.60
2022-09-09T03:32:20.501Z,17.70
2022-09-09T03:34:48.403Z,17.60
2022-09-09T03:37:15.158Z,17.50
2022-09-09T03:39:41.958Z,17.50
2022-09-09T03:42:08.750Z,17.40
2022-09-09T03:44:35.534Z,17.60
2022-09-09T03:47:02.368Z,17.50
2022-09-09T03:49:32.120Z,17.50
2022-09-09T03:51:59.956Z,17.50
2022-09-09T03:54:26.753Z,17.50
2022-09-09T03:56:53.501Z,17.50
2022-09-09T03:59:21.628Z,17.40
2022-09-09T04:01:48.660Z,17.50
2022-09-09T04:04:15.488Z,17.50
2022-09-09T04:06:42.514Z,17.50
2022-09-09T04:09:09.297Z,17.40
2022-09-09T04:11:36.047Z,17.20
2022-09-09T04:14:02.750Z,17.30
2022-09-09T04:16:29.721Z,17.30
2022-09-09T04:18:57.125Z,17.10
2022-09-09T04:21:24.247Z,17.00
2022-09-09T04:23:51.034Z,17.00
2022-09-09T04:26:17.917Z,17.00
2022-09-09T04:28:44.872Z,16.90
2022-09-09T04:31:18.984Z,17.10
2022-09-09T04:33:45.881Z,17.20
2022-09-09T04:36:13.301Z,16.80
2022-09-09T04:38:40.392Z,16.70
2022-09-09T04:41:08.303Z,16.20
2022-09-09T04:43:35.716Z,16.30
2022-09-09T04:46:02.578Z,16.10
2022-09-09T04:48:29.658Z,16.00
2022-09-09T04:51:01.302Z,16.00
2022-09-09T04:53:28.510Z,15.90
2022-09-09T04:56:06.545Z,16.00
2022-09-09T04:58:33.624Z,16.10
2022-09-09T05:01:05.689Z,16.10
2022-09-09T05:03:32.596Z,15.90
2022-09-09T05:06:05.818Z,16.00
2022-09-09T05:08:33.088Z,15.80
2022-09-09T05:11:00.670Z,15.90
2022-09-09T05:13:28.892Z,16.00
2022-09-09T05:15:56.397Z,16.00
2022-09-09T05:18:23.326Z,15.90
2022-09-09T05:20:51.958Z,15.80
2022-09-09T05:23:18.773Z,15.80
2022-09-09T05:25:55.074Z,15.80
2022-09-09T05:28:21.915Z,15.70
2022-09-09T05:31:00.103Z,15.60
2022-09-09T05:33:28.013Z,15.80
2022-09-09T05:36:06.490Z,15.80
2022-09-09T05:38:34.055Z,15.90
2022-09-09T05:41:02.073Z,15.90
2022-09-09T05:43:30.273Z,15.90
2022-09-09T05:46:09.145Z,15.90
2022-09-09T05:48:38.412Z,15.80
2022-09-09T05:51:10.246Z,15.90
2022-09-09T05:53:37.125Z,16.10
2022-09-09T05:56:06.413Z,16.00
2022-09-09T05:58:34.425Z,15.80
2022-09-09T06:01:12.702Z,15.50
2022-09-09T06:03:41.673Z,15.30
2022-09-09T06:06:14.475Z,15.20
2022-09-09T06:08:45.364Z,15.50
2022-09-09T06:11:16.619Z,15.30
2022-09-09T06:13:44.203Z,15.50
2022-09-09T06:16:16.997Z,15.50
2022-09-09T06:18:44.722Z,15.50
2022-09-09T06:21:37.985Z,15.30
2022-09-09T06:24:06.550Z,15.60
2022-09-09T06:26:36.398Z,15.40
2022-09-09T06:29:04.968Z,15.60
2022-09-09T06:31:35.362Z,16.00
2022-09-09T06:34:03.141Z,15.80
2022-09-09T06:36:32.260Z,15.70
2022-09-09T06:38:59.634Z,15.90
2022-09-09T06:41:31.334Z,16.00
2022-09-09T06:43:58.225Z,15.80
2022-09-09T06:46:28.986Z,15.70
2022-09-09T06:48:57.091Z,15.90
2022-09-09T06:51:26.852Z,15.90
2022-09-09T06:53:55.909Z,15.70
2022-09-09T06:56:29.776Z,15.70
2022-09-09T06:58:59.444Z,15.70
2022-09-09T07:01:29.855Z,15.90
2022-09-09T07:03:59.858Z,15.80
2022-09-09T07:06:29.223Z,15.80
2022-09-09T07:08:59.418Z,15.80
2022-09-09T07:11:28.489Z,15.40
2022-09-09T07:13:56.123Z,15.20
2022-09-09T07:16:26.327Z,15.40
2022-09-09T07:18:56.617Z,15.20
2022-09-09T07:21:23.380Z,15.50
2022-09-09T07:23:50.160Z,15.80
2022-09-09T07:26:21.852Z,15.50
2022-09-09T07:28:49.343Z,15.40
2022-09-09T07:31:21.667Z,15.80
2022-09-09T07:33:49.872Z,15.80
2022-09-09T07:36:31.225Z,15.90
2022-09-09T07:39:12.107Z,16.10
2022-09-09T07:41:44.758Z,15.80
2022-09-09T07:44:14.732Z,16.10
2022-09-09T07:46:42.610Z,16.30
2022-09-09T07:49:10.592Z,16.30
2022-09-09T07:51:40.157Z,16.30
2022-09-09T07:54:10.388Z,16.20
2022-09-09T07:56:40.118Z,16.20
2022-09-09T07:59:08.195Z,16.70
2022-09-09T08:01:40.129Z,16.80
2022-09-09T08:04:17.260Z,17.00
2022-09-09T08:06:47.204Z,17.20
2022-09-09T08:09:15.162Z,17.40
2022-09-09T08:11:43.047Z,17.30
2022-09-09T08:14:11.930Z,17.40
2022-09-09T08:16:45.631Z,17.40
2022-09-09T08:19:12.751Z,17.50
2022-09-09T08:21:41.127Z,17.30
2022-09-09T08:24:11.464Z,17.20
2022-09-09T08:26:47.133Z,17.40
2022-09-09T08:29:14.953Z,17.60
2022-09-09T08:31:44.384Z,17.70
2022-09-09T08:34:12.008Z,17.70
2022-09-09T08:36:43.821Z,17.50
2022-09-09T08:39:12.991Z,17.50
2022-09-09T08:41:54.858Z,17.60
2022-09-09T08:44:46.752Z,17.50
2022-09-09T08:47:43.554Z,17.40
2022-09-09T08:50:16.373Z,17.30
2022-09-09T08:52:51.928Z,17.00
2022-09-09T08:55:28.012Z,17.20
2022-09-09T08:57:56.936Z,17.30
2022-09-09T09:00:27.761Z,17.30
2022-09-09T09:03:12.610Z,17.10
2022-09-09T09:05:48.564Z,17.30
2022-09-09T09:08:48.469Z,17.60
2022-09-09T09:11:15.348Z,17.60
2022-09-09T09:14:04.883Z,17.20
2022-09-09T09:16:34.401Z,17.10
2022-09-09T09:19:01.936Z,17.00
2022-09-09T09:21:42.508Z,17.20
2022-09-09T09:24:24.663Z,17.10
2022-09-09T09:26:52.286Z,17.10
2022-09-09T09:29:21.159Z,17.30
2022-09-09T09:31:57.990Z,17.60
2022-09-09T09:34:26.187Z,17.50
2022-09-09T09:37:04.216Z,17.50
2022-09-09T09:42:24.829Z,17.90
2022-09-09T09:44:51.845Z,18.00
2022-09-09T09:47:23.040Z,18.20
2022-09-09T09:50:00.873Z,18.40
2022-09-09T09:52:30.818Z,18.20
2022-09-09T09:55:05.253Z,18.50
2022-09-09T09:57:35.384Z,18.60
2022-09-09T10:00:20.425Z,18.40
2022-09-09T10:02:48.599Z,18.70
2022-09-09T10:05:17.817Z,19.20
2022-09-09T10:07:46.185Z,18.80
2022-09-09T10:10:36.265Z,18.90
2022-09-09T10:13:28.220Z,18.70
2022-09-09T10:16:05.318Z,18.70
2022-09-09T10:18:49.112Z,18.90
2022-09-09T10:21:33.225Z,19.30
2022-09-09T10:24:15.404Z,19.50
2022-09-09T10:27:01.698Z,19.50
2022-09-09T10:30:03.514Z,19.50
2022-09-09T10:32:42.050Z,19.60
2022-09-09T10:35:27.407Z,19.80
2022-09-09T10:38:21.750Z,20.20
2022-09-09T10:41:04.788Z,20.50
2022-09-09T10:43:43.954Z,20.30
2022-09-09T10:46:53.063Z,20.60
2022-09-09T10:49:56.349Z,20.80
2022-09-09T10:52:33.355Z,20.70
2022-09-09T10:55:29.749Z,20.50
2022-09-09T10:58:00.073Z,20.20
2022-09-09T11:00:52.030Z,20.50
2022-09-09T11:03:26.038Z,21.00
2022-09-09T11:06:05.193Z,21.10
2022-09-09T11:08:35.505Z,21.10
2022-09-09T11:11:10.544Z,21.30
2022-09-09T11:13:52.666Z,21.20
2022-09-09T11:16:29.217Z,20.90
2022-09-09T11:19:22.393Z,21.30
2022-09-09T11:21:52.973Z,21.70
2022-09-09T11:24:28.401Z,21.50
2022-09-09T11:27:28.946Z,21.30
2022-09-09T11:30:44.082Z,20.90
2022-09-09T11:33:36.407Z,21.10
2022-09-09T11:36:24.197Z,21.20
2022-09-09T11:38:53.983Z,21.60
2022-09-09T11:41:22.596Z,21.70
2022-09-09T11:43:53.114Z,21.60
2022-09-09T11:46:37.504Z,21.80
2022-09-09T11:49:07.972Z,21.90
2022-09-09T11:51:36.407Z,22.10
2022-09-09T11:54:30.444Z,22.30
2022-09-09T11:56:57.988Z,22.00
2022-09-09T11:59:34.453Z,22.50
2022-09-09T12:02:03.876Z,22.80
2022-09-09T12:04:43.715Z,22.90
2022-09-09T12:07:10.731Z,23.10
2022-09-09T12:09:43.955Z,23.50
2022-09-09T12:12:13.755Z,23.60
2022-09-09T12:14:44.265Z,23.50
2022-09-09T12:17:21.511Z,23.70
2022-09-09T12:19:49.225Z,23.60
2022-09-09T12:22:16.485Z,23.20
2022-09-09T12:24:52.989Z,22.20
2022-09-09T12:27:29.793Z,21.40
2022-09-09T12:30:22.701Z,20.90
2022-09-09T12:33:09.597Z,21.00
2022-09-09T12:35:39.610Z,21.70
2022-09-09T12:38:12.528Z,21.70
2022-09-09T12:40:40.573Z,22.10
2022-09-09T12:43:21.124Z,22.80
2022-09-09T12:45:51.383Z,23.70
2022-09-09T12:48:20.991Z,23.10
2022-09-09T12:50:51.507Z,22.60
2022-09-09T12:53:35.200Z,22.60
2022-09-09T12:56:09.759Z,22.50
2022-09-09T12:58:40.353Z,22.30
2022-09-09T13:01:19.435Z,22.50
2022-09-09T13:03:46.677Z,22.50
2022-09-09T13:06:28.584Z,22.50
2022-09-09T13:09:00.855Z,22.20
2022-09-09T13:11:32.348Z,22.20
2022-09-09T13:14:00.002Z,22.40
2022-09-09T13:20:18.505Z,23.30
2022-09-09T13:22:45.546Z,22.70
2022-09-09T13:25:12.871Z,21.70
2022-09-09T13:27:42.870Z,21.40
2022-09-09T13:30:24.791Z,20.50
2022-09-09T13:33:10.126Z,20.50
2022-09-09T13:35:57.357Z,20.90
2022-09-09T13:38:27.810Z,21.00
2022-09-09T13:41:08.236Z,20.90
2022-09-09T13:43:42.872Z,22.00
2022-09-09T13:46:31.199Z,22.30
2022-09-09T13:49:19.562Z,22.00
2022-09-09T13:51:48.956Z,21.90
2022-09-09T13:54:18.523Z,21.90
2022-09-09T13:56:46.192Z,21.80
2022-09-09T13:59:19.846Z,21.50
2022-09-09T14:01:47.107Z,21.70
2022-09-09T14:04:14.237Z,21.60
2022-09-09T14:06:41.368Z,21.40
2022-09-09T14:09:11.424Z,21.40
2022-09-09T14:11:39.096Z,21.70
2022-09-09T14:14:06.519Z,22.00
2022-09-09T14:16:34.252Z,21.90
2022-09-09T14:19:02.233Z,22.00
2022-09-09T14:21:29.402Z,21.70
2022-09-09T14:23:56.244Z,21.20
2022-09-09T14:26:23.104Z,20.90
2022-09-09T14:28:55.272Z,21.20
2022-09-09T14:31:23.998Z,22.10
2022-09-09T14:33:51.929Z,22.10
2022-09-09T14:36:18.764Z,21.60
2022-09-09T14:38:45.662Z,21.60
2022-09-09T14:41:15.700Z,21.50
2022-09-09T14:43:42.548Z,21.60
2022-09-09T14:46:12.109Z,22.20
2022-09-09T14:48:42.706Z,22.80
2022-09-09T14:51:11.815Z,23.00
2022-09-09T14:53:38.844Z,23.50
2022-09-09T14:56:12.260Z,23.80
2022-09-09T14:58:39.492Z,23.00
2022-09-09T15:01:11.976Z,22.00
2022-09-09T15:03:40.716Z,21.50
2022-09-09T15:06:16.751Z,21.40
2022-09-09T15:08:45.133Z,21.40
2022-09-09T15:11:13.421Z,21.30
2022-09-09T15:13:41.771Z,21.10
2022-09-09T15:16:09.742Z,21.30
2022-09-09T15:18:37.417Z,21.50
2022-09-09T15:21:05.987Z,21.30
2022-09-09T15:23:37.380Z,21.30
2022-09-09T15:26:05.049Z,21.20
2022-09-09T15:28:38.555Z,21.40
2022-09-09T15:31:12.385Z,21.20
2022-09-09T15:33:39.405Z,21.60
2022-09-09T15:36:23.679Z,21.70
2022-09-09T15:38:51.257Z,21.40
2022-09-09T15:41:19.945Z,20.90
2022-09-09T15:43:49.751Z,20.90
2022-09-09T15:46:29.616Z,20.70
2022-09-09T15:48:59.058Z,20.80
2022-09-09T15:51:44.055Z,20.90
2022-09-09T15:54:18.000Z,21.00
2022-09-09T15:56:46.415Z,21.10
2022-09-09T15:59:13.310Z,20.80
2022-09-09T16:01:40.746Z,20.90
2022-09-09T16:04:07.652Z,20.60
2022-09-09T16:06:34.888Z,20.60
2022-09-09T16:09:05.311Z,20.50
2022-09-09T16:11:36.036Z,20.60
2022-09-09T16:14:04.945Z,20.20
2022-09-09T16:16:32.440Z,20.90
2022-09-09T16:19:02.427Z,21.60
2022-09-09T16:21:32.346Z,22.20
2022-09-09T16:24:01.492Z,21.90
2022-09-09T16:26:29.715Z,22.40
2022-09-09T16:28:59.360Z,22.80
2022-09-09T16:31:28.242Z,22.60
2022-09-09T16:33:55.663Z,22.00
2022-09-09T16:36:24.786Z,21.80
2022-09-09T16:38:56.166Z,22.00
2022-09-09T16:41:23.270Z,21.60
2022-09-09T16:43:55.037Z,21.00
2022-09-09T16:46:22.607Z,21.60
2022-09-09T16:48:50.260Z,22.00
2022-09-09T16:51:18.912Z,22.70
2022-09-09T16:53:46.222Z,22.80
2022-09-09T16:56:21.882Z,22.60
2022-09-09T16:58:53.493Z,22.40
2022-09-09T17:01:20.364Z,22.70
2022-09-09T17:03:47.152Z,22.50
2022-09-09T17:06:15.622Z,21.70
2022-09-09T17:08:42.952Z,21.80
2022-09-09T17:11:19.756Z,21.00
2022-09-09T17:13:48.809Z,20.70
2022-09-09T17:16:18.154Z,20.60
2022-09-09T17:18:47.059Z,20.50
2022-09-09T17:21:16.329Z,20.20
2022-09-09T17:23:44.061Z,20.30
2022-09-09T17:26:13.054Z,20.30
2022-09-09T17:28:41.198Z,20.10
2022-09-09T17:31:10.317Z,20.00
2022-09-09T17:33:39.940Z,20.10
2022-09-09T17:36:16.044Z,20.30
2022-09-09T17:38:46.422Z,20.20
2022-09-09T17:41:18.892Z,20.40
2022-09-09T17:43:46.384Z,20.50
2022-09-09T17:46:16.674Z,20.50
2022-09-09T17:48:45.576Z,20.90
2022-09-09T17:51:19.878Z,21.20
2022-09-09T17:53:49.508Z,21.10
2022-09-09T17:56:19.252Z,20.90
2022-09-09T17:58:46.008Z,21.30
2022-09-09T18:01:15.856Z,21.40
2022-09-09T18:03:44.542Z,21.40
2022-09-09T18:06:14.049Z,21.80
2022-09-09T18:08:41.046Z,21.80
2022-09-09T18:11:08.278Z,21.30
2022-09-09T18:13:35.708Z,21.00
2022-09-09T18:16:08.584Z,20.60
2022-09-09T18:18:35.688Z,20.50
2022-09-09T18:21:06.554Z,20.30
2022-09-09T18:23:42.920Z,20.10
2022-09-09T18:26:15.086Z,20.30
2022-09-09T18:28:43.679Z,20.40
2022-09-09T18:31:13.166Z,20.20
2022-09-09T18:33:43.031Z,19.90
2022-09-09T18:36:15.372Z,19.80
2022-09-09T18:38:42.906Z,19.70
2022-09-09T18:41:15.082Z,19.80
2022-09-09T18:43:43.098Z,19.80
2022-09-09T18:46:11.246Z,19.80
2022-09-09T18:48:39.181Z,19.80
2022-09-09T18:51:08.284Z,19.70
2022-09-09T18:53:35.759Z,19.70
2022-09-09T18:56:05.548Z,19.60
2022-09-09T18:58:34.133Z,19.60
2022-09-09T19:01:02.069Z,19.70
2022-09-09T19:03:30.774Z,19.80
2022-09-09T19:06:13.290Z,19.80
2022-09-09T19:08:42.537Z,19.80
2022-09-09T19:11:12.085Z,19.80
2022-09-09T19:13:39.441Z,19.70
2022-09-09T19:16:07.727Z,19.60
2022-09-09T19:18:36.998Z,19.50
2022-09-09T19:21:18.662Z,19.40
2022-09-09T19:23:47.776Z,19.40
2022-09-09T19:26:17.062Z,19.30
2022-09-09T19:28:50.097Z,19.30
2022-09-09T19:31:19.919Z,19.40
2022-09-09T19:33:47.979Z,19.50
2022-09-09T19:36:17.819Z,19.30
2022-09-09T19:38:46.285Z,19.20
2022-09-09T19:41:23.258Z,19.10
2022-09-09T19:43:50.799Z,19.10
2022-09-09T19:46:21.361Z,19.20
2022-09-09T19:48:48.581Z,19.20
2022-09-09T19:51:21.727Z,19.20
2022-09-09T19:54:03.370Z,19.00
2022-09-09T19:56:31.650Z,18.90
2022-09-09T19:58:58.728Z,18.80
2022-09-09T20:01:26.760Z,18.80
2022-09-09T20:03:55.038Z,18.90
2022-09-09T20:06:24.416Z,18.90
2022-09-09T20:08:51.197Z,19.00
2022-09-09T20:11:18.665Z,18.90
2022-09-09T20:13:45.486Z,18.90
2022-09-09T20:16:15.941Z,18.80
2022-09-09T20:18:52.500Z,18.70
2022-09-09T20:21:23.441Z,18.60
2022-09-09T20:23:51.847Z,18.50
2022-09-09T20:26:25.440Z,18.30
2022-09-09T20:28:54.319Z,18.20
2022-09-09T20:31:24.840Z,18.20
2022-09-09T20:33:52.815Z,18.30
2022-09-09T20:36:27.000Z,18.20
2022-09-09T20:39:07.281Z,18.20
2022-09-09T20:41:36.546Z,17.90
2022-09-09T20:44:18.861Z,17.60
2022-09-09T20:46:51.864Z,17.70
2022-09-09T20:49:21.338Z,17.90
2022-09-09T20:51:50.394Z,18.00
2022-09-09T20:54:23.630Z,17.90
2022-09-09T20:56:52.034Z,17.90
2022-09-09T20:59:24.750Z,18.00
2022-09-09T21:01:53.258Z,17.90
2022-09-09T21:04:21.981Z,17.60
2022-09-09T21:06:50.290Z,17.50
2022-09-09T21:09:17.937Z,17.50
2022-09-09T21:11:44.744Z,17.60
2022-09-09T21:14:11.910Z,17.60
2022-09-09T21:16:38.736Z,17.80
2022-09-09T21:19:05.454Z,17.80
2022-09-09T21:21:32.662Z,17.80
2022-09-09T21:24:00.547Z,18.00
2022-09-09T21:26:27.717Z,18.00
2022-09-09T21:28:55.963Z,18.10
2022-09-09T21:31:27.846Z,18.10
2022-09-09T21:33:58.969Z,18.10
2022-09-09T21:36:28.198Z,17.90
2022-09-09T21:38:55.385Z,17.80
2022-09-09T21:41:22.092Z,17.80
2022-09-09T21:43:52.589Z,17.70
2022-09-09T21:46:20.060Z,17.70
2022-09-09T21:48:46.877Z,17.80
2022-09-09T21:51:16.519Z,17.90
2022-09-09T21:53:44.191Z,17.80
2022-09-09T21:56:13.131Z,17.80
2022-09-09T21:58:41.733Z,17.70
2022-09-09T22:01:17.790Z,17.70
2022-09-09T22:03:45.184Z,17.60
2022-09-09T22:06:14.781Z,17.60
2022-09-09T22:08:42.842Z,17.60
2022-09-09T22:11:15.587Z,17.60
2022-09-09T22:13:44.740Z,17.60
2022-09-09T22:16:13.870Z,17.40
2022-09-09T22:18:41.834Z,17.30
2022-09-09T22:21:15.268Z,17.30
2022-09-09T22:23:42.772Z,17.40
2022-09-09T22:26:10.168Z,17.20
2022-09-09T22:28:38.651Z,17.10
2022-09-09T22:31:06.056Z,17.10
2022-09-09T22:33:32.952Z,17.20
2022-09-09T22:35:59.966Z,17.20
2022-09-09T22:38:27.013Z,17.10
2022-09-09T22:40:54.767Z,17.20
2022-09-09T22:43:22.326Z,17.20
2022-09-09T22:45:50.908Z,17.30
2022-09-09T22:48:17.893Z,17.40
2022-09-09T22:50:45.264Z,17.50
2022-09-09T22:53:16.724Z,17.40
2022-09-09T22:56:01.293Z,17.50
2022-09-09T22:58:30.241Z,17.40
2022-09-09T23:00:59.525Z,17.30
2022-09-09T23:03:31.079Z,17.20
2022-09-09T23:06:00.640Z,17.10
2022-09-09T23:08:33.504Z,17.20
2022-09-09T23:11:08.795Z,17.10
2022-09-09T23:13:42.321Z,17.00
2022-09-09T23:16:10.832Z,17.10
2022-09-09T23:18:40.339Z,17.00
2022-09-09T23:21:12.377Z,17.00
2022-09-09T23:23:43.684Z,17.00
2022-09-09T23:26:14.290Z,17.00
2022-09-09T23:28:44.137Z,17.00
2022-09-09T23:31:13.708Z,17.10
2022-09-09T23:33:41.510Z,16.90
2022-09-09T23:36:12.215Z,16.80
2022-09-09T23:38:40.203Z,16.80
2022-09-09T23:41:09.779Z,16.70
2022-09-09T23:43:39.473Z,16.60
2022-09-09T23:46:07.512Z,16.50
2022-09-09T23:48:35.910Z,16.60
2022-09-09T23:51:02.737Z,16.50
2022-09-09T23:53:29.515Z,16.50
2022-09-09T23:55:56.265Z,16.50
2022-09-09T23:58:22.998Z,16.50
